首页
METAR-TAF:

METAR-TAF

机场 :

尼诺伊·阿基诺国际机场

马尼拉, 菲律宾

纬度: 14-31N, 经度: 121-00E, 海拔: 14米

当前天气观测

该预报发布于15分钟前的04:00 UTC
风速9节,风向
温度 33°C
湿度 59%
气压 1009 hPa
能见度10公里或以上
少量云层高于2300英尺
散云层高于30000英尺

METAR: RPLL 230400Z 10009KT 9999 FEW023 SCT300 33/24 Q1009 NOSIG RMK A2980

时间: 12:15 (04:15 UTC)

预报

该预报发布于5小时和15分钟前的23:00 UTC
预报有效从23日的 00点(UTC)到 24日的 06点(UTC)
风速5节,风向东转东南
能见度10公里或以上
少量云层高于2300英尺
散云层高于30000英尺
短暂存在
从 23日的 00点(UTC)到 23日的 06点(UTC)
风速10节,风向东南
少量云层高于2300英尺
多云层高于10000英尺
短暂存在
从 23日的 06点(UTC)到 23日的 12点(UTC)
风速10节,风向西
能見度: 9000
少量云层高于2200英尺, 积雨云.
散云层高于2300英尺
阴天层高于9000英尺
雷暴, 小雨

TAF: RPLL 222300Z 2300/2406 11005KT 9999 FEW023 SCT300 TX32/2306Z TN26/2322Z TEMPO 2300/2306 14010KT FEW023 BKN100 TEMPO 2306/2312 26010KT 9000 -TSRA FEW022CB SCT023 OVC090

超过4000个机场的气象观测和天气预报(METAR&TAF报告)。

可查询的气象台以黄色和红色小点在地图上表示。

将鼠标移到小点上方,可查看气象台名称。

然后点击查看天气观测和预报。

如需切换地图:点击带黑十字的绿色按钮放大地图;点击带横线的绿色按钮缩小地图;或者点击绿色箭头查看邻近地区的地图。


METAR-TAF: